createdAt,value
2022-12-01T00:00:12.834Z,30.33
2022-12-01T00:02:41.472Z,28.80
2022-12-01T00:05:10.487Z,24.77
2022-12-01T00:07:38.954Z,30.33
2022-12-01T00:10:26.219Z,24.13
2022-12-01T00:12:56.970Z,25.17
2022-12-01T00:15:29.110Z,18.13
2022-12-01T00:17:58.973Z,20.35
2022-12-01T00:20:27.447Z,19.63
2022-12-01T00:22:55.961Z,22.17
2022-12-01T00:25:24.346Z,21.35
2022-12-01T00:27:54.085Z,18.83
2022-12-01T00:30:24.278Z,19.25
2022-12-01T00:32:52.806Z,19.45
2022-12-01T00:35:21.352Z,16.02
2022-12-01T00:37:49.794Z,17.55
2022-12-01T00:40:19.339Z,17.42
2022-12-01T00:42:47.757Z,18.52
2022-12-01T00:45:16.277Z,17.45
2022-12-01T00:47:46.057Z,17.10
2022-12-01T00:50:23.607Z,16.60
2022-12-01T00:52:52.191Z,18.17
2022-12-01T00:55:20.589Z,15.48
2022-12-01T00:57:49.037Z,17.25
2022-12-01T01:00:18.657Z,19.30
2022-12-01T01:02:48.574Z,19.88
2022-12-01T01:05:17.138Z,20.20
2022-12-01T01:07:45.601Z,19.60
2022-12-01T01:10:14.307Z,18.48
2022-12-01T01:12:42.743Z,18.95
2022-12-01T01:15:11.819Z,19.58
2022-12-01T01:17:40.215Z,18.80
2022-12-01T01:20:11.437Z,18.95
2022-12-01T01:22:40.015Z,17.67
2022-12-01T01:25:09.291Z,17.90
2022-12-01T01:27:37.748Z,17.77
2022-12-01T01:30:07.436Z,19.10
2022-12-01T01:32:35.831Z,18.70
2022-12-01T01:35:04.250Z,19.50
2022-12-01T01:37:34.136Z,18.80
2022-12-01T01:40:02.683Z,18.33
2022-12-01T01:42:31.994Z,18.95
2022-12-01T01:45:00.807Z,19.10
2022-12-01T01:47:33.574Z,17.58
2022-12-01T01:50:08.519Z,16.63
2022-12-01T01:52:44.390Z,17.75
2022-12-01T01:55:14.048Z,18.95
2022-12-01T01:57:44.773Z,18.02
2022-12-01T02:00:15.968Z,18.13
2022-12-01T02:02:48.871Z,17.05
2022-12-01T02:05:21.695Z,17.23
2022-12-01T02:07:52.393Z,16.50
2022-12-01T02:10:23.553Z,17.05
2022-12-01T02:13:07.123Z,15.85
2022-12-01T02:15:41.686Z,15.13
2022-12-01T02:18:23.357Z,15.68
2022-12-01T02:21:27.021Z,14.55
2022-12-01T02:24:48.620Z,15.52
2022-12-01T02:27:32.362Z,15.75
2022-12-01T02:30:08.540Z,14.98
2022-12-01T02:32:48.658Z,15.57
2022-12-01T02:35:23.936Z,15.63
2022-12-01T02:38:05.056Z,15.55
2022-12-01T02:40:39.598Z,16.83
2022-12-01T02:43:15.310Z,17.80
2022-12-01T02:45:50.086Z,16.60
2022-12-01T02:48:27.146Z,15.27
2022-12-01T02:50:57.696Z,15.60
2022-12-01T02:53:26.606Z,17.20
2022-12-01T02:55:56.669Z,17.40
2022-12-01T02:58:25.317Z,15.73
2022-12-01T03:01:08.455Z,15.93
2022-12-01T03:03:59.887Z,15.52
2022-12-01T03:06:41.899Z,16.17
2022-12-01T03:09:19.136Z,16.88
2022-12-01T03:11:57.658Z,16.77
2022-12-01T03:14:36.348Z,17.35
2022-12-01T03:17:09.210Z,17.30
2022-12-01T03:19:43.279Z,16.63
2022-12-01T03:22:16.545Z,14.55
2022-12-01T03:24:49.153Z,17.20
2022-12-01T03:27:23.251Z,17.58
2022-12-01T03:29:54.789Z,17.02
2022-12-01T03:32:28.398Z,21.40
2022-12-01T03:35:01.487Z,17.05
2022-12-01T03:37:37.806Z,16.48
2022-12-01T03:40:10.036Z,18.67
2022-12-01T03:42:42.607Z,17.17
2022-12-01T03:45:19.705Z,16.67
2022-12-01T03:47:48.312Z,17.15
2022-12-01T03:50:18.759Z,19.70
2022-12-01T03:52:54.894Z,18.08
2022-12-01T03:55:26.575Z,17.55
2022-12-01T03:58:02.196Z,17.48
2022-12-01T04:00:32.493Z,17.33
2022-12-01T04:03:04.594Z,16.48
2022-12-01T04:05:37.579Z,16.35
2022-12-01T04:08:38.331Z,18.33
2022-12-01T04:11:52.279Z,16.63
2022-12-01T04:14:51.963Z,15.90
2022-12-01T04:17:45.365Z,14.70
2022-12-01T04:20:15.414Z,16.70
2022-12-01T04:22:45.557Z,15.65
2022-12-01T04:25:13.964Z,15.68
2022-12-01T04:27:42.384Z,16.00
2022-12-01T04:30:11.680Z,16.20
2022-12-01T04:32:41.303Z,17.42
2022-12-01T04:35:11.423Z,21.20
2022-12-01T04:37:40.563Z,19.83
2022-12-01T04:40:11.546Z,19.00
2022-12-01T04:42:40.982Z,15.15
2022-12-01T04:45:10.990Z,16.92
2022-12-01T04:47:39.410Z,17.33
2022-12-01T04:50:08.678Z,16.02
2022-12-01T04:52:38.483Z,17.40
2022-12-01T04:55:08.632Z,17.33
2022-12-01T04:57:39.640Z,15.10
2022-12-01T05:00:13.469Z,15.80
2022-12-01T05:02:43.707Z,15.93
2022-12-01T05:05:12.919Z,16.88
2022-12-01T05:07:41.487Z,19.38
2022-12-01T05:10:14.512Z,17.92
2022-12-01T05:12:44.488Z,16.63
2022-12-01T05:15:13.402Z,17.20
2022-12-01T05:17:41.706Z,18.05
2022-12-01T05:20:29.693Z,18.52
2022-12-01T05:23:08.252Z,20.23
2022-12-01T05:25:39.454Z,17.35
2022-12-01T05:28:09.286Z,14.63
2022-12-01T05:30:37.735Z,16.15
2022-12-01T05:33:06.173Z,16.95
2022-12-01T05:35:34.716Z,20.95
2022-12-01T05:38:07.565Z,17.38
2022-12-01T05:40:36.972Z,17.13
2022-12-01T05:43:05.508Z,16.98
2022-12-01T05:45:36.771Z,14.15
2022-12-01T05:48:05.618Z,15.77
2022-12-01T05:50:34.123Z,16.38
2022-12-01T05:53:02.529Z,15.02
2022-12-01T05:55:30.982Z,16.73
2022-12-01T05:57:59.365Z,19.10
2022-12-01T06:00:27.899Z,16.88
2022-12-01T06:02:57.898Z,18.23
2022-12-01T06:05:26.358Z,17.73
2022-12-01T06:07:54.823Z,17.33
2022-12-01T06:10:23.563Z,17.20
2022-12-01T06:12:51.990Z,16.55
2022-12-01T06:15:20.725Z,16.92
2022-12-01T06:17:49.106Z,17.42
2022-12-01T06:20:18.987Z,17.25
2022-12-01T06:22:47.617Z,18.10
2022-12-01T06:25:20.135Z,16.85
2022-12-01T06:27:52.222Z,18.23
2022-12-01T06:30:21.797Z,17.52
2022-12-01T06:32:50.198Z,18.15
2022-12-01T06:35:20.772Z,18.30
2022-12-01T06:37:49.561Z,18.15
2022-12-01T06:40:18.004Z,17.10
2022-12-01T06:42:46.461Z,17.55
2022-12-01T06:45:14.949Z,18.77
2022-12-01T06:47:43.378Z,17.70
2022-12-01T06:50:12.440Z,16.35
2022-12-01T06:52:42.174Z,18.90
2022-12-01T06:55:11.142Z,19.00
2022-12-01T06:57:41.122Z,18.08
2022-12-01T07:00:11.480Z,18.40
2022-12-01T07:02:40.475Z,18.52
2022-12-01T07:05:09.652Z,18.55
2022-12-01T07:07:39.414Z,18.33
2022-12-01T07:10:11.791Z,20.85
2022-12-01T07:12:41.711Z,17.20
2022-12-01T07:15:10.835Z,18.77
2022-12-01T07:17:39.257Z,21.92
2022-12-01T07:20:10.307Z,24.00
2022-12-01T07:22:38.870Z,19.90
2022-12-01T07:25:10.038Z,18.90
2022-12-01T07:27:39.871Z,19.80
2022-12-01T07:30:09.642Z,19.17
2022-12-01T07:32:38.244Z,18.50
2022-12-01T07:35:07.832Z,18.50
2022-12-01T07:37:36.225Z,19.63
2022-12-01T07:40:04.994Z,20.70
2022-12-01T07:42:34.896Z,19.00
2022-12-01T07:45:03.256Z,20.08
2022-12-01T07:47:32.723Z,18.77
2022-12-01T07:50:01.157Z,18.63
2022-12-01T07:52:30.021Z,20.52
2022-12-01T07:54:58.622Z,20.08
2022-12-01T07:57:27.062Z,21.35
2022-12-01T07:59:57.004Z,20.05
2022-12-01T08:02:25.615Z,19.30
2022-12-01T08:04:54.175Z,18.33
2022-12-01T08:07:26.025Z,20.17
2022-12-01T08:09:56.990Z,21.17
2022-12-01T08:12:25.541Z,20.55
2022-12-01T08:14:54.029Z,19.75
2022-12-01T08:17:24.631Z,19.65
2022-12-01T08:19:53.393Z,20.13
2022-12-01T08:22:21.751Z,20.42
2022-12-01T08:24:50.199Z,20.00
2022-12-01T08:27:18.778Z,17.92
2022-12-01T08:29:47.320Z,19.60
2022-12-01T08:32:15.948Z,19.73
2022-12-01T08:34:51.864Z,18.15
2022-12-01T08:37:21.770Z,18.48
2022-12-01T08:39:50.429Z,20.30
2022-12-01T08:42:18.951Z,20.50
2022-12-01T08:44:47.387Z,19.05
2022-12-01T08:47:18.885Z,20.00
2022-12-01T08:49:49.324Z,18.05
2022-12-01T08:52:38.933Z,17.15
2022-12-01T08:55:08.896Z,17.35
2022-12-01T08:57:37.556Z,16.15
2022-12-01T09:00:07.167Z,18.42
2022-12-01T09:02:35.968Z,16.88
2022-12-01T09:05:06.514Z,18.48
2022-12-01T09:07:35.128Z,18.90
2022-12-01T09:10:03.769Z,17.48
2022-12-01T09:12:32.595Z,17.42
2022-12-01T09:15:01.039Z,17.92
2022-12-01T09:17:30.098Z,18.08
2022-12-01T09:19:58.579Z,17.00
2022-12-01T09:22:28.402Z,20.73
2022-12-01T09:24:56.943Z,18.92
2022-12-01T09:27:25.362Z,18.33
2022-12-01T09:29:53.831Z,22.13
2022-12-01T09:32:22.235Z,17.05
2022-12-01T09:34:50.782Z,20.20
2022-12-01T09:37:19.241Z,19.73
2022-12-01T09:39:49.380Z,19.15
2022-12-01T09:42:32.189Z,18.23
2022-12-01T09:45:06.009Z,18.52
2022-12-01T09:47:36.789Z,21.40
2022-12-01T09:50:08.506Z,21.65
2022-12-01T09:52:44.993Z,19.10
2022-12-01T09:55:17.666Z,18.30
2022-12-01T09:57:48.995Z,17.05
2022-12-01T10:00:21.282Z,18.60
2022-12-01T10:02:54.400Z,18.23
2022-12-01T10:06:02.966Z,17.40
2022-12-01T10:08:36.554Z,17.63
2022-12-01T10:11:17.742Z,16.83
2022-12-01T10:13:46.160Z,16.35
2022-12-01T10:16:19.801Z,18.70
2022-12-01T10:18:55.818Z,18.20
2022-12-01T10:21:36.660Z,17.48
2022-12-01T10:25:16.696Z,17.27
2022-12-01T10:27:49.318Z,14.98
2022-12-01T10:30:19.495Z,17.92
2022-12-01T10:32:53.948Z,15.52
2022-12-01T10:35:24.766Z,16.48
2022-12-01T10:37:57.904Z,17.65
2022-12-01T10:40:28.224Z,16.45
2022-12-01T10:42:58.143Z,16.15
2022-12-01T10:45:28.895Z,18.10
2022-12-01T10:48:15.242Z,18.58
2022-12-01T10:50:45.278Z,17.98
2022-12-01T10:53:30.159Z,18.23
2022-12-01T10:56:04.795Z,17.30
2022-12-01T10:58:40.622Z,17.48
2022-12-01T11:01:21.135Z,18.63
2022-12-01T11:03:57.124Z,18.85
2022-12-01T11:06:29.126Z,18.73
2022-12-01T11:09:00.159Z,17.55
2022-12-01T11:11:32.804Z,18.02
2022-12-01T11:14:06.910Z,19.00
2022-12-01T11:16:39.750Z,18.52
2022-12-01T11:19:27.269Z,20.33
2022-12-01T11:21:58.397Z,18.45
2022-12-01T11:24:31.359Z,18.38
2022-12-01T11:27:01.396Z,20.90
2022-12-01T11:29:36.849Z,18.67
2022-12-01T11:32:24.140Z,18.65
2022-12-01T11:34:58.215Z,19.02
2022-12-01T11:37:32.810Z,17.55
2022-12-01T11:40:10.013Z,19.88
2022-12-01T11:42:41.489Z,21.08
2022-12-01T11:45:29.421Z,20.27
2022-12-01T11:48:04.404Z,20.35
2022-12-01T11:50:35.022Z,20.08
2022-12-01T11:53:04.740Z,18.50
2022-12-01T11:55:33.354Z,17.33
2022-12-01T11:58:05.255Z,18.75
2022-12-01T12:00:47.048Z,17.30
2022-12-01T12:03:22.562Z,17.13
2022-12-01T12:06:31.834Z,16.40
2022-12-01T12:09:06.114Z,16.02
2022-12-01T12:11:44.777Z,15.77
2022-12-01T12:14:39.886Z,16.67
2022-12-01T12:17:26.590Z,15.52
2022-12-01T12:20:09.622Z,16.67
2022-12-01T12:22:55.643Z,16.20
2022-12-01T12:25:34.051Z,15.93
2022-12-01T12:28:17.608Z,15.65
2022-12-01T12:30:56.211Z,16.67
2022-12-01T12:34:00.617Z,16.05
2022-12-01T12:36:42.581Z,16.63
2022-12-01T12:39:29.867Z,17.17
2022-12-01T12:41:59.121Z,20.08
2022-12-01T12:44:50.071Z,18.98
2022-12-01T12:47:30.870Z,16.45
2022-12-01T12:50:13.327Z,17.55
2022-12-01T12:52:45.931Z,15.85
2022-12-01T12:55:22.687Z,17.13
2022-12-01T12:57:55.323Z,15.43
2022-12-01T13:00:26.570Z,16.63
2022-12-01T13:02:59.171Z,16.77
2022-12-01T13:05:37.234Z,18.63
2022-12-01T13:08:13.246Z,21.58
2022-12-01T13:10:48.162Z,19.50
2022-12-01T13:13:29.656Z,20.70
2022-12-01T13:16:00.250Z,20.60
2022-12-01T13:18:38.153Z,21.98
2022-12-01T13:21:08.631Z,21.92
2022-12-01T13:23:40.016Z,22.48
2022-12-01T13:26:11.501Z,21.70
2022-12-01T13:28:44.125Z,21.33
2022-12-01T13:31:17.126Z,21.75
2022-12-01T13:33:55.510Z,21.23
2022-12-01T13:39:20.890Z,23.05
2022-12-01T13:42:00.200Z,20.85
2022-12-01T13:44:32.710Z,21.40
2022-12-01T13:47:05.663Z,20.88
2022-12-01T13:49:39.942Z,22.48
2022-12-01T13:52:32.054Z,20.80
2022-12-01T13:55:04.461Z,21.77
2022-12-01T13:57:36.107Z,21.52
2022-12-01T14:00:24.612Z,19.48
2022-12-01T14:03:33.561Z,20.60
2022-12-01T14:06:10.413Z,22.15
2022-12-01T14:08:47.379Z,20.73
2022-12-01T14:11:27.338Z,21.85
2022-12-01T14:14:03.305Z,21.20
2022-12-01T14:16:48.345Z,20.55
2022-12-01T14:19:31.621Z,22.70
2022-12-01T14:22:01.397Z,21.25
2022-12-01T14:24:36.252Z,21.23
2022-12-01T14:27:07.012Z,23.25
2022-12-01T14:29:39.037Z,24.00
2022-12-01T14:32:23.801Z,23.65
2022-12-01T14:34:56.881Z,23.85
2022-12-01T14:37:30.311Z,23.70
2022-12-01T14:40:09.095Z,20.67
2022-12-01T14:42:57.804Z,23.02
2022-12-01T14:45:34.771Z,20.27
2022-12-01T14:48:05.771Z,19.23
2022-12-01T14:50:46.557Z,21.63
2022-12-01T14:53:22.731Z,18.02
2022-12-01T14:55:57.672Z,18.33
2022-12-01T14:58:31.352Z,17.42
2022-12-01T15:01:07.472Z,16.45
2022-12-01T15:03:40.173Z,17.48
2022-12-01T15:06:09.222Z,18.20
2022-12-01T15:08:45.849Z,13.88
2022-12-01T15:11:25.691Z,13.00
2022-12-01T15:13:56.120Z,12.02
2022-12-01T15:16:27.283Z,14.48
2022-12-01T15:18:56.151Z,14.65
2022-12-01T15:21:27.113Z,14.80
2022-12-01T15:23:58.199Z,12.55
2022-12-01T15:26:31.422Z,12.10
2022-12-01T15:29:15.010Z,12.82
2022-12-01T15:31:45.103Z,13.20
2022-12-01T15:34:17.273Z,14.43
2022-12-01T15:36:46.675Z,16.58
2022-12-01T15:39:17.754Z,15.63
2022-12-01T15:41:54.074Z,14.27
2022-12-01T15:44:28.651Z,14.27
2022-12-01T15:46:57.435Z,12.00
2022-12-01T15:49:29.714Z,17.88
2022-12-01T15:52:08.556Z,16.92
2022-12-01T15:54:38.291Z,17.80
2022-12-01T15:57:09.205Z,17.73
2022-12-01T15:59:41.645Z,15.80
2022-12-01T16:02:28.021Z,20.77
2022-12-01T16:05:16.130Z,17.17
2022-12-01T16:08:12.140Z,17.30
2022-12-01T16:10:35.530Z,16.52
2022-12-01T16:13:46.080Z,14.95
2022-12-01T16:16:47.082Z,14.75
2022-12-01T16:19:28.312Z,17.83
2022-12-01T16:22:00.213Z,19.35
2022-12-01T16:24:35.659Z,15.77
2022-12-01T16:27:20.696Z,15.13
2022-12-01T16:29:54.007Z,13.80
2022-12-01T16:32:25.320Z,11.95
2022-12-01T16:34:55.292Z,15.32
2022-12-01T16:37:24.050Z,16.38
2022-12-01T16:39:54.812Z,15.13
2022-12-01T16:42:24.289Z,15.85
2022-12-01T16:44:54.427Z,15.00
2022-12-01T16:47:24.981Z,14.88
2022-12-01T16:49:54.252Z,15.00
2022-12-01T16:52:43.539Z,15.88
2022-12-01T16:55:26.977Z,16.30
2022-12-01T16:57:56.078Z,16.30
2022-12-01T17:00:27.538Z,14.60
2022-12-01T17:02:56.799Z,16.27
2022-12-01T17:05:25.472Z,15.27
2022-12-01T17:07:54.286Z,16.20
2022-12-01T17:10:23.353Z,12.55
2022-12-01T17:12:51.941Z,14.18
2022-12-01T17:15:20.487Z,15.60
2022-12-01T17:17:51.497Z,17.42
2022-12-01T17:20:20.167Z,17.27
2022-12-01T17:22:48.734Z,16.98
2022-12-01T17:25:17.298Z,16.75
2022-12-01T17:27:45.933Z,17.65
2022-12-01T17:30:15.017Z,17.30
2022-12-01T17:32:43.563Z,17.83
2022-12-01T17:35:14.733Z,17.20
2022-12-01T17:37:43.349Z,19.20
2022-12-01T17:40:14.963Z,19.20
2022-12-01T17:42:49.940Z,19.50
2022-12-01T17:45:19.477Z,19.38
2022-12-01T17:47:48.019Z,18.83
2022-12-01T17:50:19.597Z,18.98
2022-12-01T17:52:49.802Z,19.85
2022-12-01T17:55:19.792Z,18.17
2022-12-01T17:57:48.900Z,19.15
2022-12-01T18:00:19.482Z,20.15
2022-12-01T18:02:50.707Z,17.92
2022-12-01T18:05:21.714Z,16.27
2022-12-01T18:07:54.010Z,18.52
2022-12-01T18:10:23.087Z,17.15
2022-12-01T18:12:52.077Z,18.38
2022-12-01T18:15:20.904Z,19.48
2022-12-01T18:17:49.442Z,18.67
2022-12-01T18:20:18.114Z,19.17
2022-12-01T18:22:48.429Z,18.35
2022-12-01T18:25:17.149Z,18.80
2022-12-01T18:27:45.601Z,18.58
2022-12-01T18:30:16.042Z,17.15
2022-12-01T18:32:44.673Z,15.55
2022-12-01T18:35:13.286Z,18.75
2022-12-01T18:37:41.843Z,20.33
2022-12-01T18:40:13.758Z,21.23
2022-12-01T18:42:42.320Z,19.77
2022-12-01T18:45:20.656Z,19.92
2022-12-01T18:47:49.944Z,19.00
2022-12-01T18:50:18.740Z,21.65
2022-12-01T18:52:47.198Z,18.13
2022-12-01T18:55:17.162Z,19.27
2022-12-01T18:57:45.982Z,18.88
2022-12-01T19:00:16.004Z,20.20
2022-12-01T19:02:45.869Z,18.58
2022-12-01T19:05:14.449Z,18.42
2022-12-01T19:07:46.402Z,19.45
2022-12-01T19:10:16.764Z,18.67
2022-12-01T19:12:48.399Z,19.17
2022-12-01T19:15:17.003Z,18.35
2022-12-01T19:17:45.438Z,19.23
2022-12-01T19:20:14.391Z,21.42
2022-12-01T19:22:42.847Z,21.85
2022-12-01T19:25:13.470Z,19.95
2022-12-01T19:27:43.515Z,20.75
2022-12-01T19:30:12.983Z,21.40
2022-12-01T19:32:43.690Z,23.13
2022-12-01T19:36:58.686Z,21.90
2022-12-01T19:39:27.301Z,20.83
2022-12-01T19:41:57.424Z,22.30
2022-12-01T19:44:35.582Z,20.52
2022-12-01T19:47:04.426Z,22.38
2022-12-01T19:49:53.910Z,24.95
2022-12-01T19:52:29.018Z,23.65
2022-12-01T19:55:52.871Z,22.38
2022-12-01T19:58:28.778Z,25.88
2022-12-01T20:01:07.015Z,26.63
2022-12-01T20:03:40.758Z,20.40
2022-12-01T20:06:12.048Z,20.90
2022-12-01T20:08:40.833Z,20.90
2022-12-01T20:11:09.425Z,21.33
2022-12-01T20:13:44.540Z,25.48
2022-12-01T20:16:16.962Z,26.27
2022-12-01T20:18:45.791Z,25.30
2022-12-01T20:21:17.527Z,27.20
2022-12-01T20:23:47.461Z,26.80
2022-12-01T20:26:18.171Z,31.52
2022-12-01T20:28:48.819Z,32.42
2022-12-01T20:31:21.926Z,26.15
2022-12-01T20:33:51.323Z,23.20
2022-12-01T20:36:20.084Z,22.08
2022-12-01T20:38:48.738Z,23.30
2022-12-01T20:41:17.969Z,25.63
2022-12-01T20:43:47.315Z,27.85
2022-12-01T20:46:16.498Z,26.67
2022-12-01T20:48:46.388Z,24.58
2022-12-01T20:51:16.218Z,21.60
2022-12-01T20:54:05.452Z,19.23
2022-12-01T20:56:33.551Z,20.02
2022-12-01T20:59:02.270Z,24.08
2022-12-01T21:01:30.779Z,18.63
2022-12-01T21:04:00.600Z,18.35
2022-12-01T21:06:29.972Z,15.75
2022-12-01T21:08:58.929Z,21.02
2022-12-01T21:11:44.059Z,23.05
2022-12-01T21:14:17.059Z,17.85
2022-12-01T21:16:49.314Z,26.38
2022-12-01T21:19:27.157Z,23.90
2022-12-01T21:21:55.759Z,24.00
2022-12-01T21:24:33.576Z,26.80
2022-12-01T21:27:13.884Z,24.20
2022-12-01T21:29:45.130Z,23.73
2022-12-01T21:32:16.161Z,25.15
2022-12-01T21:34:48.404Z,23.85
2022-12-01T21:37:22.514Z,25.63
2022-12-01T21:39:52.526Z,27.23
2022-12-01T21:42:23.571Z,21.35
2022-12-01T21:44:52.508Z,23.52
2022-12-01T21:47:23.334Z,24.42
2022-12-01T21:49:55.064Z,24.60
2022-12-01T21:52:29.966Z,21.30
2022-12-01T21:55:02.830Z,23.35
2022-12-01T21:57:43.000Z,25.40
2022-12-01T22:00:29.464Z,20.63
2022-12-01T22:03:23.123Z,23.58
2022-12-01T22:06:21.385Z,22.40
2022-12-01T22:08:46.899Z,21.35
2022-12-01T22:11:19.025Z,20.60
2022-12-01T22:13:50.994Z,20.83
2022-12-01T22:16:22.770Z,20.27
2022-12-01T22:18:53.055Z,16.63
2022-12-01T22:21:45.515Z,20.73
2022-12-01T22:24:28.700Z,19.90
2022-12-01T22:27:13.374Z,19.38
2022-12-01T22:29:44.858Z,21.30
2022-12-01T22:32:47.021Z,18.42
2022-12-01T22:35:30.141Z,20.38
2022-12-01T22:38:30.674Z,20.17
2022-12-01T22:41:03.030Z,20.15
2022-12-01T22:43:40.527Z,19.67
2022-12-01T22:46:17.007Z,20.15
2022-12-01T22:48:47.205Z,19.15
2022-12-01T22:51:25.043Z,21.35
2022-12-01T22:56:31.544Z,18.63
2022-12-01T22:59:00.432Z,19.45
2022-12-01T23:01:31.311Z,19.00
2022-12-01T23:04:14.925Z,21.30
2022-12-01T23:06:57.777Z,21.00
2022-12-01T23:09:32.744Z,18.05
2022-12-01T23:12:05.832Z,21.00
2022-12-01T23:14:35.295Z,19.38
2022-12-01T23:17:08.532Z,19.45
2022-12-01T23:19:37.119Z,21.92
2022-12-01T23:22:05.863Z,21.42
2022-12-01T23:24:35.688Z,20.70
2022-12-01T23:27:04.404Z,18.73
2022-12-01T23:29:32.893Z,21.17
2022-12-01T23:32:01.495Z,20.17
2022-12-01T23:34:30.245Z,18.88
2022-12-01T23:36:58.640Z,21.40
2022-12-01T23:39:32.506Z,19.20
2022-12-01T23:42:04.636Z,19.23
2022-12-01T23:44:40.563Z,18.50
2022-12-01T23:47:17.038Z,20.48
2022-12-01T23:49:46.580Z,21.85
2022-12-01T23:52:19.935Z,21.15
2022-12-01T23:54:49.424Z,20.25
2022-12-01T23:57:21.875Z,19.25
2022-12-01T23:59:52.882Z,19.10
